sensor_id;sensor_type;location;lat;lon;timestamp;temperature;humidity
13610;DHT22;6876;50.788;4.940;2022-09-03T00:01:36;18.60;99.90
13610;DHT22;6876;50.788;4.940;2022-09-03T00:04:30;18.70;99.90
13610;DHT22;6876;50.788;4.940;2022-09-03T00:07:27;18.60;99.90
13610;DHT22;6876;50.788;4.940;2022-09-03T00:10:21;18.60;99.90
13610;DHT22;6876;50.788;4.940;2022-09-03T00:13:14;18.70;99.90
13610;DHT22;6876;50.788;4.940;2022-09-03T00:16:05;18.70;99.90
13610;DHT22;6876;50.788;4.940;2022-09-03T00:19:00;18.70;99.90
13610;DHT22;6876;50.788;4.940;2022-09-03T00:21:51;18.70;99.90
13610;DHT22;6876;50.788;4.940;2022-09-03T00:24:41;18.60;99.90
13610;DHT22;6876;50.788;4.940;2022-09-03T00:27:32;18.60;99.90
13610;DHT22;6876;50.788;4.940;2022-09-03T00:30:22;18.60;99.90
13610;DHT22;6876;50.788;4.940;2022-09-03T00:33:14;18.60;99.90
13610;DHT22;6876;50.788;4.940;2022-09-03T00:36:11;18.60;99.90
13610;DHT22;6876;50.788;4.940;2022-09-03T00:39:00;18.60;99.90
13610;DHT22;6876;50.788;4.940;2022-09-03T00:42:00;18.60;99.90
13610;DHT22;6876;50.788;4.940;2022-09-03T00:45:05;18.60;99.90
13610;DHT22;6876;50.788;4.940;2022-09-03T00:48:02;18.50;99.90
13610;DHT22;6876;50.788;4.940;2022-09-03T00:51:04;18.50;99.90
13610;DHT22;6876;50.788;4.940;2022-09-03T00:54:02;18.50;99.90
13610;DHT22;6876;50.788;4.940;2022-09-03T01:00:06;18.60;99.90
13610;DHT22;6876;50.788;4.940;2022-09-03T01:03:02;18.50;99.90
13610;DHT22;6876;50.788;4.940;2022-09-03T01:06:03;18.40;99.90
13610;DHT22;6876;50.788;4.940;2022-09-03T01:09:02;18.30;99.90
13610;DHT22;6876;50.788;4.940;2022-09-03T01:12:00;18.40;99.90
13610;DHT22;6876;50.788;4.940;2022-09-03T01:15:00;18.40;99.90
13610;DHT22;6876;50.788;4.940;2022-09-03T01:17:59;18.40;99.90
13610;DHT22;6876;50.788;4.940;2022-09-03T01:20:57;18.30;99.90
13610;DHT22;6876;50.788;4.940;2022-09-03T01:24:12;18.30;99.90
13610;DHT22;6876;50.788;4.940;2022-09-03T01:27:14;18.50;99.90
13610;DHT22;6876;50.788;4.940;2022-09-03T01:30:07;18.50;99.90
13610;DHT22;6876;50.788;4.940;2022-09-03T01:33:09;18.50;99.90
13610;DHT22;6876;50.788;4.940;2022-09-03T01:36:03;18.40;99.90
13610;DHT22;6876;50.788;4.940;2022-09-03T01:38:57;18.40;99.90
13610;DHT22;6876;50.788;4.940;2022-09-03T01:41:52;18.40;99.90
13610;DHT22;6876;50.788;4.940;2022-09-03T01:48:18;18.40;99.90
13610;DHT22;6876;50.788;4.940;2022-09-03T01:51:15;18.30;99.90
13610;DHT22;6876;50.788;4.940;2022-09-03T01:54:35;18.30;99.90
13610;DHT22;6876;50.788;4.940;2022-09-03T01:57:44;18.30;99.90
13610;DHT22;6876;50.788;4.940;2022-09-03T02:00:38;18.20;99.90
13610;DHT22;6876;50.788;4.940;2022-09-03T02:03:35;18.20;99.90
13610;DHT22;6876;50.788;4.940;2022-09-03T02:06:23;18.20;99.90
13610;DHT22;6876;50.788;4.940;2022-09-03T02:09:11;18.20;99.90
13610;DHT22;6876;50.788;4.940;2022-09-03T02:12:04;18.20;99.90
13610;DHT22;6876;50.788;4.940;2022-09-03T02:14:54;18.10;99.90
13610;DHT22;6876;50.788;4.940;2022-09-03T02:17:43;18.10;99.90
13610;DHT22;6876;50.788;4.940;2022-09-03T02:20:33;18.20;99.90
13610;DHT22;6876;50.788;4.940;2022-09-03T02:23:20;18.00;99.90
13610;DHT22;6876;50.788;4.940;2022-09-03T02:26:11;18.00;99.90
13610;DHT22;6876;50.788;4.940;2022-09-03T02:29:00;17.90;99.90
13610;DHT22;6876;50.788;4.940;2022-09-03T02:31:48;17.90;99.90
13610;DHT22;6876;50.788;4.940;2022-09-03T02:34:35;17.90;99.90
13610;DHT22;6876;50.788;4.940;2022-09-03T02:37:24;17.90;99.90
13610;DHT22;6876;50.788;4.940;2022-09-03T02:40:11;17.90;99.90
13610;DHT22;6876;50.788;4.940;2022-09-03T02:42:59;17.90;99.90
13610;DHT22;6876;50.788;4.940;2022-09-03T02:45:48;17.90;99.90
13610;DHT22;6876;50.788;4.940;2022-09-03T02:48:36;17.80;99.90
13610;DHT22;6876;50.788;4.940;2022-09-03T02:51:23;17.80;99.90
13610;DHT22;6876;50.788;4.940;2022-09-03T02:54:12;17.70;99.90
13610;DHT22;6876;50.788;4.940;2022-09-03T02:56:59;17.70;99.90
13610;DHT22;6876;50.788;4.940;2022-09-03T02:59:46;17.80;99.90
13610;DHT22;6876;50.788;4.940;2022-09-03T03:02:34;17.70;99.90
13610;DHT22;6876;50.788;4.940;2022-09-03T03:05:27;17.70;99.90
13610;DHT22;6876;50.788;4.940;2022-09-03T03:08:17;17.70;99.90
13610;DHT22;6876;50.788;4.940;2022-09-03T03:11:07;17.70;99.90
13610;DHT22;6876;50.788;4.940;2022-09-03T03:13:55;17.70;99.90
13610;DHT22;6876;50.788;4.940;2022-09-03T03:16:42;17.80;99.90
13610;DHT22;6876;50.788;4.940;2022-09-03T03:19:29;17.90;99.90
13610;DHT22;6876;50.788;4.940;2022-09-03T03:22:17;17.90;99.90
13610;DHT22;6876;50.788;4.940;2022-09-03T03:25:04;17.90;99.90
13610;DHT22;6876;50.788;4.940;2022-09-03T03:27:55;17.90;99.90
13610;DHT22;6876;50.788;4.940;2022-09-03T03:30:42;17.90;99.90
13610;DHT22;6876;50.788;4.940;2022-09-03T03:33:32;17.80;99.90
13610;DHT22;6876;50.788;4.940;2022-09-03T03:36:20;17.80;99.90
13610;DHT22;6876;50.788;4.940;2022-09-03T03:39:07;17.80;99.90
13610;DHT22;6876;50.788;4.940;2022-09-03T03:41:55;17.80;99.90
13610;DHT22;6876;50.788;4.940;2022-09-03T03:44:43;17.90;99.90
13610;DHT22;6876;50.788;4.940;2022-09-03T03:47:31;17.80;99.90
13610;DHT22;6876;50.788;4.940;2022-09-03T03:50:19;17.80;99.90
13610;DHT22;6876;50.788;4.940;2022-09-03T03:53:06;17.80;99.90
13610;DHT22;6876;50.788;4.940;2022-09-03T03:55:54;17.90;99.90
13610;DHT22;6876;50.788;4.940;2022-09-03T03:58:42;17.90;99.90
13610;DHT22;6876;50.788;4.940;2022-09-03T04:01:30;17.90;99.90
13610;DHT22;6876;50.788;4.940;2022-09-03T04:04:17;17.90;99.90
13610;DHT22;6876;50.788;4.940;2022-09-03T04:07:05;17.80;99.90
13610;DHT22;6876;50.788;4.940;2022-09-03T04:09:52;17.80;99.90
13610;DHT22;6876;50.788;4.940;2022-09-03T04:12:39;17.70;99.90
13610;DHT22;6876;50.788;4.940;2022-09-03T04:15:27;17.70;99.90
13610;DHT22;6876;50.788;4.940;2022-09-03T04:18:15;17.70;99.90
13610;DHT22;6876;50.788;4.940;2022-09-03T04:21:04;17.80;99.90
13610;DHT22;6876;50.788;4.940;2022-09-03T04:23:53;17.80;99.90
13610;DHT22;6876;50.788;4.940;2022-09-03T04:26:40;17.80;99.90
13610;DHT22;6876;50.788;4.940;2022-09-03T04:29:27;17.80;99.90
13610;DHT22;6876;50.788;4.940;2022-09-03T04:32:16;17.70;99.90
13610;DHT22;6876;50.788;4.940;2022-09-03T04:35:23;17.70;99.90
13610;DHT22;6876;50.788;4.940;2022-09-03T04:38:11;17.60;99.90
13610;DHT22;6876;50.788;4.940;2022-09-03T04:40:58;17.50;99.90
13610;DHT22;6876;50.788;4.940;2022-09-03T04:43:46;17.40;99.90
13610;DHT22;6876;50.788;4.940;2022-09-03T04:46:34;17.50;99.90
13610;DHT22;6876;50.788;4.940;2022-09-03T04:49:21;17.60;99.90
13610;DHT22;6876;50.788;4.940;2022-09-03T04:52:11;17.40;99.90
13610;DHT22;6876;50.788;4.940;2022-09-03T04:54:58;17.40;99.90
13610;DHT22;6876;50.788;4.940;2022-09-03T04:57:45;17.50;99.90
13610;DHT22;6876;50.788;4.940;2022-09-03T05:00:32;17.50;99.90
13610;DHT22;6876;50.788;4.940;2022-09-03T05:03:21;17.60;99.90
13610;DHT22;6876;50.788;4.940;2022-09-03T05:06:08;17.50;99.90
13610;DHT22;6876;50.788;4.940;2022-09-03T05:08:57;17.60;99.90
13610;DHT22;6876;50.788;4.940;2022-09-03T05:11:45;17.70;99.90
13610;DHT22;6876;50.788;4.940;2022-09-03T05:14:32;17.70;99.90
13610;DHT22;6876;50.788;4.940;2022-09-03T05:17:19;17.60;99.90
13610;DHT22;6876;50.788;4.940;2022-09-03T05:20:07;17.60;99.90
13610;DHT22;6876;50.788;4.940;2022-09-03T05:22:55;17.70;99.90
13610;DHT22;6876;50.788;4.940;2022-09-03T05:25:54;17.60;99.90
13610;DHT22;6876;50.788;4.940;2022-09-03T05:28:43;17.70;99.90
13610;DHT22;6876;50.788;4.940;2022-09-03T05:31:30;17.70;99.90
13610;DHT22;6876;50.788;4.940;2022-09-03T05:34:18;17.60;99.90
13610;DHT22;6876;50.788;4.940;2022-09-03T05:37:05;17.80;99.90
13610;DHT22;6876;50.788;4.940;2022-09-03T05:39:52;17.90;99.90
13610;DHT22;6876;50.788;4.940;2022-09-03T05:42:41;18.00;99.90
13610;DHT22;6876;50.788;4.940;2022-09-03T05:45:28;18.10;99.90
13610;DHT22;6876;50.788;4.940;2022-09-03T05:48:15;18.10;99.90
13610;DHT22;6876;50.788;4.940;2022-09-03T05:51:05;18.10;99.90
13610;DHT22;6876;50.788;4.940;2022-09-03T05:53:52;18.20;99.90
13610;DHT22;6876;50.788;4.940;2022-09-03T05:56:40;18.20;99.90
13610;DHT22;6876;50.788;4.940;2022-09-03T05:59:29;18.30;99.90
13610;DHT22;6876;50.788;4.940;2022-09-03T06:02:16;18.30;99.90
13610;DHT22;6876;50.788;4.940;2022-09-03T06:05:05;18.40;99.90
13610;DHT22;6876;50.788;4.940;2022-09-03T06:07:52;18.40;99.90
13610;DHT22;6876;50.788;4.940;2022-09-03T06:10:40;18.40;99.90
13610;DHT22;6876;50.788;4.940;2022-09-03T06:13:27;18.60;99.90
13610;DHT22;6876;50.788;4.940;2022-09-03T06:16:16;18.60;99.90
13610;DHT22;6876;50.788;4.940;2022-09-03T06:19:03;18.70;99.90
13610;DHT22;6876;50.788;4.940;2022-09-03T06:21:52;18.90;99.90
13610;DHT22;6876;50.788;4.940;2022-09-03T06:24:40;19.10;99.90
13610;DHT22;6876;50.788;4.940;2022-09-03T06:27:27;19.20;99.90
13610;DHT22;6876;50.788;4.940;2022-09-03T06:30:16;19.20;99.90
13610;DHT22;6876;50.788;4.940;2022-09-03T06:33:04;19.20;99.90
13610;DHT22;6876;50.788;4.940;2022-09-03T06:35:53;19.20;99.90
13610;DHT22;6876;50.788;4.940;2022-09-03T06:38:43;19.30;99.90
13610;DHT22;6876;50.788;4.940;2022-09-03T06:41:31;19.40;99.90
13610;DHT22;6876;50.788;4.940;2022-09-03T06:44:20;19.50;99.90
13610;DHT22;6876;50.788;4.940;2022-09-03T06:47:07;19.60;99.90
13610;DHT22;6876;50.788;4.940;2022-09-03T06:49:55;19.70;99.90
13610;DHT22;6876;50.788;4.940;2022-09-03T06:52:43;19.80;99.90
13610;DHT22;6876;50.788;4.940;2022-09-03T06:55:31;19.80;99.90
13610;DHT22;6876;50.788;4.940;2022-09-03T06:58:18;20.00;99.90
13610;DHT22;6876;50.788;4.940;2022-09-03T07:01:07;20.00;99.90
13610;DHT22;6876;50.788;4.940;2022-09-03T07:03:55;20.00;99.90
13610;DHT22;6876;50.788;4.940;2022-09-03T07:06:44;20.10;99.90
13610;DHT22;6876;50.788;4.940;2022-09-03T07:09:32;20.30;99.90
13610;DHT22;6876;50.788;4.940;2022-09-03T07:12:23;20.40;99.90
13610;DHT22;6876;50.788;4.940;2022-09-03T07:15:10;20.50;99.90
13610;DHT22;6876;50.788;4.940;2022-09-03T07:17:57;20.50;99.90
13610;DHT22;6876;50.788;4.940;2022-09-03T07:20:45;20.60;99.90
13610;DHT22;6876;50.788;4.940;2022-09-03T07:23:35;20.70;99.90
13610;DHT22;6876;50.788;4.940;2022-09-03T07:26:23;20.80;99.90
13610;DHT22;6876;50.788;4.940;2022-09-03T07:29:11;20.90;99.90
13610;DHT22;6876;50.788;4.940;2022-09-03T07:32:00;21.00;99.90
13610;DHT22;6876;50.788;4.940;2022-09-03T07:34:48;21.00;99.90
13610;DHT22;6876;50.788;4.940;2022-09-03T07:37:40;21.10;99.90
13610;DHT22;6876;50.788;4.940;2022-09-03T07:40:28;21.30;99.90
13610;DHT22;6876;50.788;4.940;2022-09-03T07:43:18;21.40;99.90
13610;DHT22;6876;50.788;4.940;2022-09-03T07:46:06;21.70;99.90
13610;DHT22;6876;50.788;4.940;2022-09-03T07:48:55;22.00;99.90
13610;DHT22;6876;50.788;4.940;2022-09-03T07:51:43;22.30;99.90
13610;DHT22;6876;50.788;4.940;2022-09-03T07:54:31;22.60;99.90
13610;DHT22;6876;50.788;4.940;2022-09-03T07:57:19;22.70;99.90
13610;DHT22;6876;50.788;4.940;2022-09-03T08:00:08;22.90;99.90
13610;DHT22;6876;50.788;4.940;2022-09-03T08:02:57;23.20;99.90
13610;DHT22;6876;50.788;4.940;2022-09-03T08:05:48;23.60;99.90
13610;DHT22;6876;50.788;4.940;2022-09-03T08:08:36;23.80;99.90
13610;DHT22;6876;50.788;4.940;2022-09-03T08:11:24;23.70;99.90
13610;DHT22;6876;50.788;4.940;2022-09-03T08:14:13;24.10;99.90
13610;DHT22;6876;50.788;4.940;2022-09-03T08:17:01;25.50;99.90
13610;DHT22;6876;50.788;4.940;2022-09-03T08:19:48;26.70;99.90
13610;DHT22;6876;50.788;4.940;2022-09-03T08:22:36;26.50;99.90
13610;DHT22;6876;50.788;4.940;2022-09-03T08:25:23;26.30;99.90
13610;DHT22;6876;50.788;4.940;2022-09-03T08:28:11;26.10;99.90
13610;DHT22;6876;50.788;4.940;2022-09-03T08:31:04;25.70;99.90
13610;DHT22;6876;50.788;4.940;2022-09-03T08:33:53;25.40;99.90
13610;DHT22;6876;50.788;4.940;2022-09-03T08:36:40;25.20;99.90
13610;DHT22;6876;50.788;4.940;2022-09-03T08:39:27;24.80;99.90
13610;DHT22;6876;50.788;4.940;2022-09-03T08:42:24;24.50;99.90
13610;DHT22;6876;50.788;4.940;2022-09-03T08:45:15;24.20;99.90
13610;DHT22;6876;50.788;4.940;2022-09-03T08:48:08;24.00;99.90
13610;DHT22;6876;50.788;4.940;2022-09-03T08:50:58;24.10;99.90
13610;DHT22;6876;50.788;4.940;2022-09-03T08:53:48;24.30;99.90
13610;DHT22;6876;50.788;4.940;2022-09-03T08:56:42;24.50;99.90
13610;DHT22;6876;50.788;4.940;2022-09-03T08:59:29;24.70;99.90
13610;DHT22;6876;50.788;4.940;2022-09-03T09:02:25;24.80;99.90
13610;DHT22;6876;50.788;4.940;2022-09-03T09:05:24;24.90;99.90
13610;DHT22;6876;50.788;4.940;2022-09-03T09:08:22;25.20;99.90
13610;DHT22;6876;50.788;4.940;2022-09-03T09:11:17;26.30;99.90
13610;DHT22;6876;50.788;4.940;2022-09-03T09:14:11;27.90;99.90
13610;DHT22;6876;50.788;4.940;2022-09-03T09:17:07;27.70;99.90
13610;DHT22;6876;50.788;4.940;2022-09-03T09:20:05;27.50;99.90
13610;DHT22;6876;50.788;4.940;2022-09-03T09:23:01;27.30;99.90
13610;DHT22;6876;50.788;4.940;2022-09-03T09:25:50;28.70;99.90
13610;DHT22;6876;50.788;4.940;2022-09-03T09:28:38;30.10;99.90
13610;DHT22;6876;50.788;4.940;2022-09-03T09:31:26;30.70;99.90
13610;DHT22;6876;50.788;4.940;2022-09-03T09:34:15;32.30;99.90
13610;DHT22;6876;50.788;4.940;2022-09-03T09:37:06;33.40;98.40
13610;DHT22;6876;50.788;4.940;2022-09-03T09:39:58;34.40;97.00
13610;DHT22;6876;50.788;4.940;2022-09-03T09:42:45;34.50;95.60
13610;DHT22;6876;50.788;4.940;2022-09-03T09:45:33;34.30;95.30
13610;DHT22;6876;50.788;4.940;2022-09-03T09:48:22;34.30;93.70
13610;DHT22;6876;50.788;4.940;2022-09-03T09:51:18;33.60;93.70
13610;DHT22;6876;50.788;4.940;2022-09-03T09:54:12;33.60;93.90
13610;DHT22;6876;50.788;4.940;2022-09-03T09:57:07;33.70;93.50
13610;DHT22;6876;50.788;4.940;2022-09-03T10:00:01;33.80;92.50
13610;DHT22;6876;50.788;4.940;2022-09-03T10:02:52;33.60;92.10
13610;DHT22;6876;50.788;4.940;2022-09-03T10:05:40;32.90;92.60
13610;DHT22;6876;50.788;4.940;2022-09-03T10:08:28;32.50;93.60
13610;DHT22;6876;50.788;4.940;2022-09-03T10:11:17;31.70;94.30
13610;DHT22;6876;50.788;4.940;2022-09-03T10:14:11;31.20;95.40
13610;DHT22;6876;50.788;4.940;2022-09-03T10:17:08;31.00;95.60
13610;DHT22;6876;50.788;4.940;2022-09-03T10:20:02;31.00;95.90
13610;DHT22;6876;50.788;4.940;2022-09-03T10:23:12;30.60;96.80
13610;DHT22;6876;50.788;4.940;2022-09-03T10:26:03;30.40;97.10
13610;DHT22;6876;50.788;4.940;2022-09-03T10:28:52;30.20;96.80
13610;DHT22;6876;50.788;4.940;2022-09-03T10:31:54;30.00;97.30
13610;DHT22;6876;50.788;4.940;2022-09-03T10:34:53;30.00;97.40
13610;DHT22;6876;50.788;4.940;2022-09-03T10:37:50;29.80;97.40
13610;DHT22;6876;50.788;4.940;2022-09-03T10:40:43;29.40;97.70
13610;DHT22;6876;50.788;4.940;2022-09-03T10:43:58;29.40;98.50
13610;DHT22;6876;50.788;4.940;2022-09-03T10:46:56;29.60;98.30
13610;DHT22;6876;50.788;4.940;2022-09-03T10:49:50;29.50;98.30
13610;DHT22;6876;50.788;4.940;2022-09-03T10:52:58;29.30;98.80
13610;DHT22;6876;50.788;4.940;2022-09-03T10:55:56;29.10;98.80
13610;DHT22;6876;50.788;4.940;2022-09-03T10:59:07;28.60;99.30
13610;DHT22;6876;50.788;4.940;2022-09-03T11:02:10;27.90;99.70
13610;DHT22;6876;50.788;4.940;2022-09-03T11:05:01;27.70;99.90
13610;DHT22;6876;50.788;4.940;2022-09-03T11:07:56;28.40;99.90
13610;DHT22;6876;50.788;4.940;2022-09-03T11:10:48;29.30;98.80
13610;DHT22;6876;50.788;4.940;2022-09-03T11:13:40;29.50;98.50
13610;DHT22;6876;50.788;4.940;2022-09-03T11:16:31;29.80;97.60
13610;DHT22;6876;50.788;4.940;2022-09-03T11:19:24;29.80;97.90
13610;DHT22;6876;50.788;4.940;2022-09-03T11:22:14;30.30;97.90
13610;DHT22;6876;50.788;4.940;2022-09-03T11:25:05;30.40;98.30
13610;DHT22;6876;50.788;4.940;2022-09-03T11:28:07;30.20;98.10
13610;DHT22;6876;50.788;4.940;2022-09-03T11:31:16;29.80;97.70
13610;DHT22;6876;50.788;4.940;2022-09-03T11:34:07;29.30;99.30
13610;DHT22;6876;50.788;4.940;2022-09-03T11:37:06;28.70;99.90
13610;DHT22;6876;50.788;4.940;2022-09-03T11:40:05;28.70;99.90
13610;DHT22;6876;50.788;4.940;2022-09-03T11:43:07;28.80;99.70
13610;DHT22;6876;50.788;4.940;2022-09-03T11:46:02;29.30;99.50
13610;DHT22;6876;50.788;4.940;2022-09-03T11:48:52;29.80;99.10
13610;DHT22;6876;50.788;4.940;2022-09-03T11:51:40;29.90;98.70
13610;DHT22;6876;50.788;4.940;2022-09-03T11:54:41;29.90;98.70
13610;DHT22;6876;50.788;4.940;2022-09-03T11:57:30;29.50;98.90
13610;DHT22;6876;50.788;4.940;2022-09-03T12:00:18;29.30;99.60
13610;DHT22;6876;50.788;4.940;2022-09-03T12:03:12;29.70;99.60
13610;DHT22;6876;50.788;4.940;2022-09-03T12:06:33;30.20;99.10
13610;DHT22;6876;50.788;4.940;2022-09-03T12:09:37;30.00;99.10
13610;DHT22;6876;50.788;4.940;2022-09-03T12:12:42;29.40;99.60
13610;DHT22;6876;50.788;4.940;2022-09-03T12:15:49;29.50;99.70
13610;DHT22;6876;50.788;4.940;2022-09-03T12:18:41;29.80;99.30
13610;DHT22;6876;50.788;4.940;2022-09-03T12:21:36;29.70;99.70
13610;DHT22;6876;50.788;4.940;2022-09-03T12:24:26;29.30;99.50
13610;DHT22;6876;50.788;4.940;2022-09-03T12:27:23;28.80;99.90
13610;DHT22;6876;50.788;4.940;2022-09-03T12:30:15;28.40;99.90
13610;DHT22;6876;50.788;4.940;2022-09-03T12:33:04;28.30;99.90
13610;DHT22;6876;50.788;4.940;2022-09-03T12:35:56;28.30;99.90
13610;DHT22;6876;50.788;4.940;2022-09-03T12:38:43;28.30;99.90
13610;DHT22;6876;50.788;4.940;2022-09-03T12:41:32;28.10;99.90
13610;DHT22;6876;50.788;4.940;2022-09-03T12:44:25;28.00;99.90
13610;DHT22;6876;50.788;4.940;2022-09-03T12:47:15;27.70;99.90
13610;DHT22;6876;50.788;4.940;2022-09-03T12:50:06;27.60;99.90
13610;DHT22;6876;50.788;4.940;2022-09-03T12:52:56;27.40;99.90
13610;DHT22;6876;50.788;4.940;2022-09-03T12:55:48;27.30;99.90
13610;DHT22;6876;50.788;4.940;2022-09-03T12:58:48;27.10;99.90
13610;DHT22;6876;50.788;4.940;2022-09-03T13:01:41;27.10;99.90
13610;DHT22;6876;50.788;4.940;2022-09-03T13:04:32;27.00;99.90
13610;DHT22;6876;50.788;4.940;2022-09-03T13:07:24;26.80;99.90
13610;DHT22;6876;50.788;4.940;2022-09-03T13:10:22;27.00;99.90
13610;DHT22;6876;50.788;4.940;2022-09-03T13:13:20;27.30;99.90
13610;DHT22;6876;50.788;4.940;2022-09-03T13:19:46;27.60;99.90
13610;DHT22;6876;50.788;4.940;2022-09-03T13:22:39;27.90;99.90
13610;DHT22;6876;50.788;4.940;2022-09-03T13:25:38;28.10;99.90
13610;DHT22;6876;50.788;4.940;2022-09-03T13:28:39;28.40;99.90
13610;DHT22;6876;50.788;4.940;2022-09-03T13:31:34;28.50;99.90
13610;DHT22;6876;50.788;4.940;2022-09-03T13:34:25;28.50;99.90
13610;DHT22;6876;50.788;4.940;2022-09-03T13:37:24;28.50;99.90
13610;DHT22;6876;50.788;4.940;2022-09-03T13:40:17;28.20;99.90
13610;DHT22;6876;50.788;4.940;2022-09-03T13:43:13;27.20;99.90
13610;DHT22;6876;50.788;4.940;2022-09-03T13:46:06;27.20;99.90
13610;DHT22;6876;50.788;4.940;2022-09-03T13:48:58;27.50;99.90
13610;DHT22;6876;50.788;4.940;2022-09-03T13:52:11;27.60;99.90
13610;DHT22;6876;50.788;4.940;2022-09-03T13:55:08;28.00;99.90
13610;DHT22;6876;50.788;4.940;2022-09-03T13:58:00;28.00;99.90
13610;DHT22;6876;50.788;4.940;2022-09-03T14:00:52;28.10;99.90
13610;DHT22;6876;50.788;4.940;2022-09-03T14:03:44;28.00;99.90
13610;DHT22;6876;50.788;4.940;2022-09-03T14:06:39;27.90;99.90
13610;DHT22;6876;50.788;4.940;2022-09-03T14:09:34;28.00;99.90
13610;DHT22;6876;50.788;4.940;2022-09-03T14:12:35;28.30;99.90
13610;DHT22;6876;50.788;4.940;2022-09-03T14:15:31;28.50;99.90
13610;DHT22;6876;50.788;4.940;2022-09-03T14:18:34;28.40;99.90
13610;DHT22;6876;50.788;4.940;2022-09-03T14:21:27;28.60;99.90
13610;DHT22;6876;50.788;4.940;2022-09-03T14:24:19;28.60;99.90
13610;DHT22;6876;50.788;4.940;2022-09-03T14:27:08;28.60;99.90
13610;DHT22;6876;50.788;4.940;2022-09-03T14:30:00;28.50;99.90
13610;DHT22;6876;50.788;4.940;2022-09-03T14:32:52;28.40;99.90
13610;DHT22;6876;50.788;4.940;2022-09-03T14:35:58;28.30;99.90
13610;DHT22;6876;50.788;4.940;2022-09-03T14:39:02;28.30;99.90
13610;DHT22;6876;50.788;4.940;2022-09-03T14:42:22;28.10;99.90
13610;DHT22;6876;50.788;4.940;2022-09-03T14:45:23;27.90;99.90
13610;DHT22;6876;50.788;4.940;2022-09-03T14:48:29;27.80;99.90
13610;DHT22;6876;50.788;4.940;2022-09-03T14:51:38;27.90;99.90
13610;DHT22;6876;50.788;4.940;2022-09-03T14:54:36;27.80;99.90
13610;DHT22;6876;50.788;4.940;2022-09-03T14:57:47;27.80;99.90
13610;DHT22;6876;50.788;4.940;2022-09-03T15:00:49;27.70;99.90
13610;DHT22;6876;50.788;4.940;2022-09-03T15:04:19;27.50;99.90
13610;DHT22;6876;50.788;4.940;2022-09-03T15:07:29;27.40;99.90
13610;DHT22;6876;50.788;4.940;2022-09-03T15:10:25;27.30;99.90
13610;DHT22;6876;50.788;4.940;2022-09-03T15:13:16;27.30;99.90
13610;DHT22;6876;50.788;4.940;2022-09-03T15:16:18;27.10;99.90
13610;DHT22;6876;50.788;4.940;2022-09-03T15:19:13;27.10;99.90
13610;DHT22;6876;50.788;4.940;2022-09-03T15:22:11;27.20;99.90
13610;DHT22;6876;50.788;4.940;2022-09-03T15:25:06;27.20;99.90
13610;DHT22;6876;50.788;4.940;2022-09-03T15:28:05;27.00;99.90
13610;DHT22;6876;50.788;4.940;2022-09-03T15:31:00;27.10;99.90
13610;DHT22;6876;50.788;4.940;2022-09-03T15:33:56;27.30;99.90
13610;DHT22;6876;50.788;4.940;2022-09-03T15:36:49;27.50;99.90
13610;DHT22;6876;50.788;4.940;2022-09-03T15:39:41;27.60;99.90
13610;DHT22;6876;50.788;4.940;2022-09-03T15:42:31;27.60;99.80
13610;DHT22;6876;50.788;4.940;2022-09-03T15:45:27;27.50;99.70
13610;DHT22;6876;50.788;4.940;2022-09-03T15:48:21;27.50;99.90
13610;DHT22;6876;50.788;4.940;2022-09-03T15:51:16;27.40;99.90
13610;DHT22;6876;50.788;4.940;2022-09-03T15:54:11;27.30;99.90
13610;DHT22;6876;50.788;4.940;2022-09-03T15:57:04;27.30;99.90
13610;DHT22;6876;50.788;4.940;2022-09-03T15:59:58;27.30;99.90
13610;DHT22;6876;50.788;4.940;2022-09-03T16:02:50;27.30;99.90
13610;DHT22;6876;50.788;4.940;2022-09-03T16:05:41;27.30;99.90
13610;DHT22;6876;50.788;4.940;2022-09-03T16:08:38;27.20;99.90
13610;DHT22;6876;50.788;4.940;2022-09-03T16:11:35;27.00;99.90
13610;DHT22;6876;50.788;4.940;2022-09-03T16:14:28;26.80;99.90
13610;DHT22;6876;50.788;4.940;2022-09-03T16:17:24;26.70;99.90
13610;DHT22;6876;50.788;4.940;2022-09-03T16:20:17;26.50;99.90
13610;DHT22;6876;50.788;4.940;2022-09-03T16:23:11;26.40;99.90
13610;DHT22;6876;50.788;4.940;2022-09-03T16:26:05;25.80;99.90
13610;DHT22;6876;50.788;4.940;2022-09-03T16:28:55;25.30;99.90
13610;DHT22;6876;50.788;4.940;2022-09-03T16:31:58;25.00;99.90
13610;DHT22;6876;50.788;4.940;2022-09-03T16:35:05;24.90;99.90
13610;DHT22;6876;50.788;4.940;2022-09-03T16:38:08;24.90;99.90
13610;DHT22;6876;50.788;4.940;2022-09-03T16:41:10;25.00;99.90
13610;DHT22;6876;50.788;4.940;2022-09-03T16:44:06;24.90;99.90
13610;DHT22;6876;50.788;4.940;2022-09-03T16:47:03;24.70;99.90
13610;DHT22;6876;50.788;4.940;2022-09-03T16:50:00;24.50;99.90
13610;DHT22;6876;50.788;4.940;2022-09-03T16:53:04;24.40;99.90
13610;DHT22;6876;50.788;4.940;2022-09-03T16:56:02;24.40;99.90
13610;DHT22;6876;50.788;4.940;2022-09-03T16:59:00;24.40;99.90
13610;DHT22;6876;50.788;4.940;2022-09-03T17:01:59;24.50;99.90
13610;DHT22;6876;50.788;4.940;2022-09-03T17:05:12;24.60;99.90
13610;DHT22;6876;50.788;4.940;2022-09-03T17:08:14;24.70;99.90
13610;DHT22;6876;50.788;4.940;2022-09-03T17:11:17;24.90;99.90
13610;DHT22;6876;50.788;4.940;2022-09-03T17:14:33;25.00;99.90
13610;DHT22;6876;50.788;4.940;2022-09-03T17:17:35;25.10;99.90
13610;DHT22;6876;50.788;4.940;2022-09-03T17:20:41;25.10;99.90
13610;DHT22;6876;50.788;4.940;2022-09-03T17:23:57;25.00;99.90
13610;DHT22;6876;50.788;4.940;2022-09-03T17:26:53;24.70;99.90
13610;DHT22;6876;50.788;4.940;2022-09-03T17:29:59;24.60;99.90
13610;DHT22;6876;50.788;4.940;2022-09-03T17:36:30;24.20;99.90
13610;DHT22;6876;50.788;4.940;2022-09-03T17:39:43;24.00;99.90
13610;DHT22;6876;50.788;4.940;2022-09-03T17:42:41;23.80;99.90
13610;DHT22;6876;50.788;4.940;2022-09-03T17:45:42;23.60;99.90
13610;DHT22;6876;50.788;4.940;2022-09-03T17:48:44;23.50;99.90
13610;DHT22;6876;50.788;4.940;2022-09-03T17:51:40;23.50;99.90
13610;DHT22;6876;50.788;4.940;2022-09-03T17:54:40;23.40;99.90
13610;DHT22;6876;50.788;4.940;2022-09-03T17:57:30;23.40;99.90
13610;DHT22;6876;50.788;4.940;2022-09-03T18:00:23;23.30;99.90
13610;DHT22;6876;50.788;4.940;2022-09-03T18:03:16;23.30;99.90
13610;DHT22;6876;50.788;4.940;2022-09-03T18:06:08;23.30;99.90
13610;DHT22;6876;50.788;4.940;2022-09-03T18:09:02;23.30;99.90
13610;DHT22;6876;50.788;4.940;2022-09-03T18:12:04;23.20;99.90
13610;DHT22;6876;50.788;4.940;2022-09-03T18:14:58;23.00;99.90
13610;DHT22;6876;50.788;4.940;2022-09-03T18:17:53;22.80;99.90
13610;DHT22;6876;50.788;4.940;2022-09-03T18:20:49;22.90;99.90
13610;DHT22;6876;50.788;4.940;2022-09-03T18:23:58;22.80;99.90
13610;DHT22;6876;50.788;4.940;2022-09-03T18:27:09;22.80;99.90
13610;DHT22;6876;50.788;4.940;2022-09-03T18:30:15;22.80;99.90
13610;DHT22;6876;50.788;4.940;2022-09-03T18:33:22;22.70;99.90
13610;DHT22;6876;50.788;4.940;2022-09-03T18:36:29;22.80;99.90
13610;DHT22;6876;50.788;4.940;2022-09-03T18:39:34;22.70;99.90
13610;DHT22;6876;50.788;4.940;2022-09-03T18:42:48;22.70;99.90
13610;DHT22;6876;50.788;4.940;2022-09-03T18:45:59;22.60;99.90
13610;DHT22;6876;50.788;4.940;2022-09-03T18:49:07;22.50;99.90